Time;durP1;ratioP1;P1;durP2;ratioP2;P2;SDS_P1;SDS_P2;PMS_P1;PMS_P2;Temp;Humidity;BMP_temperature;BMP_pressure;BME280_temperature;BME280_humidity;BME280_pressure;Samples;Min_cycle;Max_cycle;Signal;HPM_P1;HPM_P2
2022/08/24 00:02:02;;;;;;;14.98;8.75;;;;;;;24.02;39.60;101032.44;5013178;28;20041;-61
2022/08/24 00:04:28;;;;;;;17.60;9.00;;;;;;;24.00;40.03;101038.06;5012141;28;20096;-61
2022/08/24 00:06:54;;;;;;;16.13;9.15;;;;;;;24.01;40.04;101033.44;5032511;28;20037;-61
2022/08/24 00:09:19;;;;;;;14.38;9.25;;;;;;;24.00;40.02;101039.94;5032056;28;20124;-60
2022/08/24 00:11:46;;;;;;;14.02;9.02;;;;;;;23.97;40.20;101043.06;5015149;28;20041;-61
2022/08/24 00:14:12;;;;;;;19.15;8.95;;;;;;;23.94;40.27;101039.66;5013167;28;20116;-62
2022/08/24 00:16:38;;;;;;;17.17;9.00;;;;;;;23.92;40.62;101047.19;5016481;28;20063;-61
2022/08/24 00:19:04;;;;;;;14.93;8.82;;;;;;;23.82;40.17;101030.16;5032632;28;20045;-62
2022/08/24 00:21:29;;;;;;;15.38;9.50;;;;;;;23.89;40.25;101041.22;5033090;28;20083;-61
2022/08/24 00:23:55;;;;;;;16.10;9.50;;;;;;;23.92;40.41;101047.19;5018609;28;20038;-62
2022/08/24 00:26:21;;;;;;;18.00;8.82;;;;;;;23.89;40.47;101047.56;5012625;28;20041;-61
2022/08/24 00:28:47;;;;;;;18.15;8.85;;;;;;;23.85;40.45;101046.19;5016414;28;20481;-60
2022/08/24 00:31:12;;;;;;;21.27;9.05;;;;;;;23.88;40.39;101040.38;5032619;28;20029;-62
2022/08/24 00:33:39;;;;;;;16.75;9.15;;;;;;;23.86;40.55;101050.63;5032657;28;20036;-61
2022/08/24 00:36:05;;;;;;;16.40;9.60;;;;;;;23.85;40.63;101051.66;5032370;28;20036;-61
2022/08/24 00:38:32;;;;;;;22.17;9.77;;;;;;;23.83;40.74;101059.19;5022306;28;20042;-61
2022/08/24 00:40:58;;;;;;;18.15;9.27;;;;;;;23.83;40.80;101048.25;5012926;28;20033;-61
2022/08/24 00:43:25;;;;;;;15.38;8.77;;;;;;;23.85;40.75;101057.13;5013759;28;20042;-61
2022/08/24 00:46:19;;;;;;;14.43;9.35;;;;;;;23.91;40.43;101056.44;5032796;28;20038;-61
2022/08/24 00:48:48;;;;;;;20.98;9.95;;;;;;;23.84;40.84;101051.88;5032519;28;20446;-61
2022/08/24 00:51:22;;;;;;;22.88;10.23;;;;;;;23.76;41.51;101052.75;5014913;28;20108;-61
2022/08/24 00:53:52;;;;;;;19.10;10.18;;;;;;;23.74;41.54;101058.41;5012459;28;20034;-61
2022/08/24 00:56:27;;;;;;;17.52;10.07;;;;;;;23.70;41.31;101064.44;5012997;28;20038;-60
2022/08/24 00:58:59;;;;;;;24.23;10.27;;;;;;;23.70;41.49;101058.97;5025951;28;20037;-61
2022/08/24 01:01:27;;;;;;;15.77;9.75;;;;;;;23.60;41.57;101057.28;5032144;28;20106;-61
2022/08/24 01:03:54;;;;;;;18.17;10.23;;;;;;;23.59;41.69;101055.59;5032360;28;20068;-61
2022/08/24 01:06:19;;;;;;;18.95;10.30;;;;;;;23.58;41.66;101053.88;5021170;28;20029;-61
2022/08/24 01:08:45;;;;;;;21.92;10.20;;;;;;;23.53;41.88;101053.59;5012521;28;20036;-61
2022/08/24 01:11:16;;;;;;;20.90;10.95;;;;;;;23.54;41.74;101060.75;5011881;28;20124;-62
2022/08/24 01:13:45;;;;;;;16.30;11.23;;;;;;;23.52;42.12;101062.81;5016239;28;20034;-61
2022/08/24 01:16:13;;;;;;;19.98;10.82;;;;;;;23.46;42.42;101052.63;5012852;28;20042;-60
2022/08/24 01:18:48;;;;;;;22.65;11.77;;;;;;;23.43;42.70;101058.44;5012257;28;20044;-61
2022/08/24 01:21:18;;;;;;;;;;;;;;;23.69;41.30;101051.81;5019427;28;20489;-61
2022/08/24 01:23:56;;;;;;;20.20;11.05;;;;;;;23.48;42.65;101056.84;5032034;28;19954;-61
2022/08/24 01:26:38;;;;;;;22.45;11.32;;;;;;;23.40;42.82;101054.16;5032096;28;20095;-62
2022/08/24 01:29:12;;;;;;;17.70;11.65;;;;;;;23.32;43.05;101060.53;5016059;28;20088;-62
2022/08/24 01:31:38;;;;;;;22.55;13.02;;;;;;;23.09;43.58;101030.38;5011764;28;20040;-61
2022/08/24 01:34:04;;;;;;;24.25;12.57;;;;;;;23.20;43.65;101060.03;5018037;28;20108;-60
2022/08/24 01:36:29;;;;;;;23.85;12.48;;;;;;;23.16;43.93;101057.84;5030841;28;20033;-60
2022/08/24 01:39:00;;;;;;;24.30;12.40;;;;;;;23.18;43.84;101061.25;5017698;28;20398;-62
2022/08/24 01:41:25;;;;;;;21.10;12.52;;;;;;;23.01;43.63;101028.53;5020346;28;20112;-61
2022/08/24 01:43:51;;;;;;;22.52;12.88;;;;;;;23.12;43.93;101059.19;5031484;28;20125;-61
2022/08/24 01:46:17;;;;;;;26.60;12.82;;;;;;;23.08;44.16;101061.47;5031443;28;20033;-61
2022/08/24 01:48:42;;;;;;;28.23;13.02;;;;;;;23.06;44.52;101053.44;5018426;28;20088;-60
2022/08/24 01:51:08;;;;;;;23.27;13.77;;;;;;;23.06;44.44;101058.88;5011099;28;20508;-60
2022/08/24 01:53:33;;;;;;;31.10;14.57;;;;;;;23.04;44.60;101054.66;5011511;28;20053;-60
2022/08/24 01:55:59;;;;;;;24.73;13.00;;;;;;;23.04;44.22;101065.56;5025897;28;20474;-61
2022/08/24 01:58:25;;;;;;;27.02;13.07;;;;;;;22.99;44.57;101062.50;5019657;28;20037;-61
2022/08/24 02:00:50;;;;;;;22.73;13.88;;;;;;;22.99;44.51;101065.22;5015304;28;20383;-61
2022/08/24 02:03:16;;;;;;;27.50;14.15;;;;;;;22.94;45.06;101063.03;5031090;28;20025;-61
2022/08/24 02:05:41;;;;;;;25.17;14.63;;;;;;;22.94;45.15;101065.78;5029397;28;20445;-61
2022/08/24 02:08:07;;;;;;;21.60;13.75;;;;;;;22.94;44.89;101065.78;5024396;28;20040;-62
2022/08/24 02:10:34;;;;;;;32.47;14.35;;;;;;;22.98;44.99;101067.13;5022399;28;20060;-62
2022/08/24 02:12:59;;;;;;;26.38;14.98;;;;;;;22.97;45.10;101076.34;5030748;28;20049;-61
2022/08/24 02:15:28;;;;;;;30.33;14.13;;;;;;;22.96;45.04;101073.78;5028686;28;20037;-61
2022/08/24 02:17:54;;;;;;;22.85;13.68;;;;;;;22.93;45.27;101064.06;5011416;28;20064;-62
2022/08/24 02:20:20;;;;;;;28.10;15.43;;;;;;;22.92;45.29;101070.56;5010709;28;20066;-62
2022/08/24 02:22:47;;;;;;;30.42;14.95;;;;;;;22.94;45.54;101072.06;5012017;28;20049;-61
2022/08/24 02:25:13;;;;;;;29.20;14.93;;;;;;;22.95;45.09;101078.41;5011233;28;20227;-61
2022/08/24 02:27:38;;;;;;;29.65;15.40;;;;;;;22.94;45.15;101076.69;5010854;28;20129;-61
2022/08/24 02:30:04;;;;;;;23.85;15.23;;;;;;;22.89;45.17;101073.63;5017861;28;20419;-61
2022/08/24 02:32:30;;;;;;;29.85;15.00;;;;;;;22.89;45.37;101069.03;5030702;28;20118;-62
2022/08/24 02:34:55;;;;;;;29.67;14.95;;;;;;;22.89;45.31;101071.75;5030692;28;20029;-61
2022/08/24 02:37:20;;;;;;;43.35;14.55;;;;;;;22.90;45.13;101069.84;5029026;28;20094;-60
2022/08/24 02:39:46;;;;;;;29.17;14.30;;;;;;;22.89;45.17;101073.63;5010687;28;20121;-62
2022/08/24 02:42:12;;;;;;;22.70;14.35;;;;;;;22.88;45.36;101069.19;5011036;28;20407;-62
2022/08/24 02:44:37;;;;;;;29.60;14.93;;;;;;;22.92;45.08;101078.75;5021641;28;20033;-61
2022/08/24 02:47:03;;;;;;;25.40;14.30;;;;;;;22.97;44.96;101079.06;5014436;28;20121;-61
2022/08/24 02:49:29;;;;;;;25.50;14.95;;;;;;;22.80;44.93;101054.53;5010921;28;20458;-61
2022/08/24 02:51:54;;;;;;;27.63;14.90;;;;;;;22.95;45.18;101067.47;5011258;28;20034;-61
2022/08/24 02:54:20;;;;;;;29.02;15.07;;;;;;;23.08;45.04;101080.56;5013321;28;20478;-61
2022/08/24 02:56:46;;;;;;;31.35;16.02;;;;;;;23.15;44.31;101075.25;5014534;28;20522;-61
2022/08/24 02:59:12;;;;;;;22.33;15.20;;;;;;;23.19;44.20;101071.97;5030423;28;20137;-62
2022/08/24 03:01:38;;;;;;;26.23;15.10;;;;;;;23.08;44.29;101059.56;5035083;28;20038;-61
2022/08/24 03:04:04;;;;;;;26.10;14.63;;;;;;;23.26;43.87;101085.81;5034581;28;20429;-61
2022/08/24 03:06:30;;;;;;;29.50;15.35;;;;;;;23.27;43.75;101075.72;5014879;28;20042;-61
2022/08/24 03:08:55;;;;;;;24.10;14.93;;;;;;;23.26;44.15;101085.81;5014690;28;20398;-60
2022/08/24 03:11:21;;;;;;;27.15;15.13;;;;;;;23.31;43.76;101085.31;5023913;28;20091;-60
2022/08/24 03:13:46;;;;;;;28.70;15.07;;;;;;;23.39;43.48;101090.72;5034306;28;20354;-61
2022/08/24 03:16:12;;;;;;;27.63;14.13;;;;;;;23.46;43.00;101090.88;5033706;28;20109;-61
2022/08/24 03:18:38;;;;;;;20.40;14.15;;;;;;;23.49;43.42;101085.88;5022469;28;20490;-61
2022/08/24 03:21:04;;;;;;;23.50;13.55;;;;;;;23.49;43.16;101091.34;5013427;28;20033;-63
2022/08/24 03:23:29;;;;;;;23.20;13.60;;;;;;;23.46;43.26;101088.13;5015374;28;20030;-62
2022/08/24 03:25:56;;;;;;;22.83;13.40;;;;;;;23.43;42.90;101078.41;5029364;28;20044;-62
2022/08/24 03:28:23;;;;;;;23.65;13.38;;;;;;;23.67;42.59;101108.53;5034120;28;20040;-61
2022/08/24 03:30:49;;;;;;;23.52;13.63;;;;;;;23.76;42.35;101108.31;5032250;28;20037;-60
2022/08/24 03:33:15;;;;;;;25.60;14.35;;;;;;;23.86;42.34;101102.59;5033270;28;20112;-61
2022/08/24 03:35:41;;;;;;;23.95;14.48;;;;;;;23.98;41.97;101094.00;5013818;28;20033;-62
2022/08/24 03:38:06;;;;;;;22.52;13.32;;;;;;;24.17;41.61;101096.28;5014318;28;20042;-61
2022/08/24 03:40:32;;;;;;;24.13;13.65;;;;;;;24.52;40.77;101096.66;5024422;28;20446;-62
2022/08/24 03:42:59;;;;;;;22.67;14.65;;;;;;;24.92;40.09;101084.66;5033581;28;20029;-60
2022/08/24 03:45:25;;;;;;;25.55;13.77;;;;;;;25.87;37.95;101098.56;5031571;28;20025;-61
2022/08/24 03:47:52;;;;;;;28.10;15.07;;;;;;;26.99;35.98;101097.22;5013715;28;20030;-61
2022/08/24 03:50:19;;;;;;;28.95;15.07;;;;;;;28.17;33.90;101107.22;5013619;28;20033;-62
2022/08/24 03:52:45;;;;;;;23.83;13.98;;;;;;;29.39;31.82;101091.41;5017295;28;20112;-61
2022/08/24 03:55:11;;;;;;;23.90;14.50;;;;;;;30.35;29.78;101090.66;5025543;28;20116;-61
2022/08/24 03:57:36;;;;;;;31.52;16.52;;;;;;;30.86;28.75;101090.63;5013000;28;20033;-61
2022/08/24 04:00:06;;;;;;;26.65;15.80;;;;;;;31.28;28.18;101096.38;5028130;28;20124;-60
2022/08/24 04:02:32;;;;;;;28.13;16.10;;;;;;;32.00;27.12;101091.16;5033152;28;20486;-61
2022/08/24 04:04:58;;;;;;;24.88;15.60;;;;;;;32.55;26.01;101078.13;5033194;28;20049;-61
2022/08/24 04:07:23;;;;;;;26.52;14.57;;;;;;;33.28;25.35;101092.56;5015107;28;20042;-61
2022/08/24 04:09:49;;;;;;;29.25;15.57;;;;;;;34.03;24.17;101086.28;5011921;28;20037;-61
2022/08/24 04:12:15;;;;;;;29.15;14.93;;;;;;;34.86;23.03;101090.38;5021652;28;20029;-61
2022/08/24 04:14:40;;;;;;;32.28;15.20;;;;;;;35.33;22.42;101100.22;5033152;28;20034;-61
2022/08/24 04:17:06;;;;;;;24.00;14.93;;;;;;;36.05;21.48;101100.19;5033212;28;20064;-62
2022/08/24 04:19:33;;;;;;;25.20;16.13;;;;;;;36.65;20.90;101097.31;5013078;28;20082;-63
2022/08/24 04:21:59;;;;;;;25.23;15.40;;;;;;;37.18;19.97;101093.75;5013590;28;20485;-61
2022/08/24 04:24:25;;;;;;;28.25;16.02;;;;;;;37.46;19.79;101105.56;5022944;28;20458;-62
2022/08/24 04:26:51;;;;;;;21.90;15.10;;;;;;;37.70;19.43;101103.13;5032968;28;20049;-61
2022/08/24 04:29:19;;;;;;;26.35;15.05;;;;;;;38.28;18.77;101104.91;5032258;28;20021;-61
2022/08/24 04:31:45;;;;;;;30.42;15.45;;;;;;;38.60;18.19;101086.16;5013001;28;20037;-62
2022/08/24 04:34:12;;;;;;;29.60;15.55;;;;;;;39.16;17.58;101113.13;5013319;28;20149;-62
2022/08/24 04:36:41;;;;;;;26.25;15.07;;;;;;;39.90;16.78;101106.91;5013046;28;20026;-61
2022/08/24 04:39:06;;;;;;;29.88;15.48;;;;;;;40.50;16.18;101104.16;5027584;28;20061;-62
2022/08/24 04:41:32;;;;;;;23.42;14.98;;;;;;;41.21;15.43;101112.13;5032800;28;20466;-61
2022/08/24 04:43:59;;;;;;;22.80;14.75;;;;;;;41.77;14.52;101115.31;5026099;28;20061;-61
2022/08/24 04:46:25;;;;;;;26.42;15.85;;;;;;;42.31;13.94;101110.22;5013118;28;20104;-61
2022/08/24 04:48:50;;;;;;;26.52;15.32;;;;;;;42.16;14.11;101117.78;5012676;28;20069;-63
2022/08/24 04:51:18;;;;;;;23.52;15.27;;;;;;;42.39;14.03;101112.31;5028739;28;20426;-62
2022/08/24 04:53:45;;;;;;;27.30;14.07;;;;;;;42.64;13.73;101098.13;5032757;28;20037;-62
2022/08/24 04:56:16;;;;;;;19.27;14.15;;;;;;;43.34;13.43;101118.72;5032883;28;20381;-61
2022/08/24 04:58:43;;;;;;;23.27;14.32;;;;;;;43.63;12.77;101111.84;5028868;28;20026;-61
2022/08/24 05:01:14;;;;;;;24.73;13.93;;;;;;;44.15;12.39;101108.66;5012849;28;20084;-61
2022/08/24 05:03:43;;;;;;;23.13;14.23;;;;;;;44.84;11.85;101105.66;5012611;28;20129;-63
2022/08/24 05:06:10;;;;;;;20.55;14.50;;;;;;;44.96;11.46;101090.94;5031068;28;20041;-61
2022/08/24 05:08:36;;;;;;;24.60;14.00;;;;;;;45.04;11.23;101109.09;5031645;28;20494;-62
2022/08/24 05:11:06;;;;;;;24.83;13.35;;;;;;;43.91;12.34;101108.13;5031654;28;20039;-62
2022/08/24 05:13:31;;;;;;;23.30;14.50;;;;;;;42.88;13.33;101101.59;5023366;28;20029;-60
2022/08/24 05:15:57;;;;;;;23.85;13.20;;;;;;;42.88;12.97;101106.38;5031563;28;20044;-62
2022/08/24 05:18:22;;;;;;;26.60;14.07;;;;;;;42.92;13.24;101106.59;5032189;28;20068;-61
2022/08/24 05:20:48;;;;;;;27.30;14.85;;;;;;;43.73;12.62;101103.16;5031568;28;20113;-60
2022/08/24 05:23:13;;;;;;;25.20;13.93;;;;;;;45.17;11.31;101108.94;5030244;28;20025;-62
2022/08/24 05:25:39;;;;;;;21.90;13.88;;;;;;;46.19;10.71;101113.69;5032269;28;20068;-62
2022/08/24 05:28:05;;;;;;;23.13;13.40;;;;;;;47.05;9.90;101106.41;5032044;28;20037;-61
2022/08/24 05:30:31;;;;;;;20.67;12.98;;;;;;;47.80;9.23;101102.03;5020152;28;20080;-62
2022/08/24 05:32:56;;;;;;;18.77;12.90;;;;;;;48.65;8.71;101105.44;5011544;28;20048;-61
2022/08/24 05:35:22;;;;;;;17.75;12.10;;;;;;;49.28;8.22;101097.75;5012327;28;20464;-62
2022/08/24 05:37:47;;;;;;;17.08;11.63;;;;;;;49.07;8.32;101100.72;5031269;28;20112;-60
2022/08/24 05:40:15;;;;;;;32.33;13.00;;;;;;;49.00;8.62;101109.84;5031321;28;20462;-62
2022/08/24 05:42:41;;;;;;;19.65;11.60;;;;;;;49.32;7.98;101103.53;5031402;28;20029;-61
2022/08/24 05:45:07;;;;;;;21.48;12.15;;;;;;;48.77;8.58;101106.69;5015323;28;20164;-61
2022/08/24 05:47:33;;;;;;;23.80;12.52;;;;;;;49.15;8.26;101098.97;5011587;28;20030;-62
2022/08/24 05:50:00;;;;;;;21.20;12.55;;;;;;;50.39;7.69;101113.53;5014281;28;20025;-61
2022/08/24 05:52:26;;;;;;;21.33;12.35;;;;;;;51.37;7.25;101100.81;5012902;28;20034;-61
2022/08/24 05:54:55;;;;;;;20.17;12.30;;;;;;;52.14;6.30;101111.78;5011693;28;20037;-63
2022/08/24 05:57:22;;;;;;;24.27;11.90;;;;;;;52.28;6.03;101114.06;5012011;28;20104;-61
2022/08/24 05:59:48;;;;;;;22.38;11.40;;;;;;;52.07;6.36;101101.88;5031150;28;20034;-61
2022/08/24 06:02:14;;;;;;;19.17;10.95;;;;;;;52.02;6.36;101109.94;5031494;28;20035;-61
2022/08/24 06:04:39;;;;;;;22.30;11.65;;;;;;;51.91;6.38;101107.66;5030503;28;20083;-61
2022/08/24 06:07:10;;;;;;;18.75;11.82;;;;;;;51.79;6.72;101094.38;5027741;28;20114;-61
2022/08/24 06:09:36;;;;;;;20.17;12.60;;;;;;;52.65;6.40;101110.63;5011327;28;20046;-61
2022/08/24 06:12:02;;;;;;;23.35;12.57;;;;;;;53.18;6.17;101103.28;5010763;28;20041;-61
2022/08/24 06:14:27;;;;;;;23.13;12.48;;;;;;;53.67;5.98;101092.88;5020890;28;20488;-62
2022/08/24 06:16:53;;;;;;;18.33;13.25;;;;;;;54.78;4.95;101105.84;5028232;28;20025;-63
2022/08/24 06:19:19;;;;;;;23.92;14.05;;;;;;;54.44;5.21;101103.94;5011293;28;20029;-61
2022/08/24 06:21:47;;;;;;;15.48;12.57;;;;;;;54.67;4.89;101106.56;5023227;28;20078;-61
2022/08/24 06:24:14;;;;;;;23.30;13.73;;;;;;;55.08;4.92;101107.69;5030757;28;20394;-61
2022/08/24 06:29:25;;;;;;;19.10;11.85;;;;;;;56.21;4.44;101094.53;5020289;28;20044;-61
2022/08/24 06:31:51;;;;;;;16.45;11.18;;;;;;;56.88;3.84;101103.50;5011125;28;20045;-62
2022/08/24 06:34:18;;;;;;;20.80;10.82;;;;;;;56.86;3.69;101100.22;5011297;28;20434;-61
2022/08/24 06:36:43;;;;;;;18.30;11.60;;;;;;;57.13;3.59;101105.50;5021804;28;20052;-63
2022/08/24 06:39:10;;;;;;;19.80;11.63;;;;;;;57.48;3.25;101098.00;5030505;28;20844;-61
2022/08/24 06:41:37;;;;;;;20.40;10.63;;;;;;;56.98;3.65;101101.06;5027219;28;20057;-61
2022/08/24 06:44:03;;;;;;;21.55;10.77;;;;;;;57.01;3.68;101098.16;5009856;28;20394;-63
2022/08/24 06:46:28;;;;;;;26.95;9.38;;;;;;;56.89;3.18;101113.78;5009788;28;20036;-64
2022/08/24 06:48:54;;;;;;;16.67;8.40;;;;;;;56.63;2.96;101103.56;5024935;28;20025;-62
2022/08/24 06:51:24;;;;;;;22.60;8.73;;;;;;;56.43;3.22;101103.16;5028686;28;20026;-63
2022/08/24 06:53:49;;;;;;;15.38;9.10;;;;;;;56.34;3.10;101100.72;5030449;28;20366;-61
2022/08/24 06:56:16;;;;;;;14.63;9.00;;;;;;;56.27;3.18;101095.75;5028085;28;20037;-61
2022/08/24 06:58:41;;;;;;;19.17;9.13;;;;;;;55.87;3.53;101107.19;5029531;28;20546;-61
2022/08/24 07:01:19;;;;;;;18.55;9.13;;;;;;;56.42;3.69;101110.97;5030223;28;20119;-62
2022/08/24 07:03:45;;;;;;;22.83;8.40;;;;;;;56.19;3.54;101099.84;5029701;28;20593;-61
2022/08/24 07:06:12;;;;;;;18.08;8.70;;;;;;;56.15;3.18;101099.03;5029511;28;20250;-62
2022/08/24 07:08:41;;;;;;;15.77;7.85;;;;;;;56.48;3.25;101092.06;5025566;28;20041;-60
2022/08/24 07:11:07;;;;;;;17.40;9.07;;;;;;;56.47;3.12;101101.91;5030451;28;20037;-62
2022/08/24 07:13:33;;;;;;;21.48;9.15;;;;;;;56.88;2.80;101094.88;5030289;28;20111;-61
2022/08/24 07:15:59;;;;;;;16.60;8.32;;;;;;;56.70;2.93;101091.25;5029881;28;20521;-61
2022/08/24 07:18:25;;;;;;;18.35;8.70;;;;;;;56.98;2.86;101095.31;5015651;28;20109;-64
2022/08/24 07:20:51;;;;;;;12.35;8.70;;;;;;;57.93;2.29;101085.00;5009367;28;20069;-65
2022/08/24 07:23:18;;;;;;;18.55;9.00;;;;;;;58.72;2.07;101105.72;5010923;28;20115;-63
2022/08/24 07:25:46;;;;;;;11.57;8.40;;;;;;;58.75;2.42;101094.16;5021935;28;20152;-64
2022/08/24 07:28:12;;;;;;;11.05;8.57;;;;;;;58.87;2.10;101075.50;5029958;28;20091;-64
2022/08/24 07:30:40;;;;;;;12.63;9.43;;;;;;;59.63;1.84;101095.97;5030352;28;20116;-64
2022/08/24 07:33:06;;;;;;;15.23;10.38;;;;;;;59.66;2.21;101095.94;5029222;28;20041;-64
2022/08/24 07:35:32;;;;;;;15.77;11.15;;;;;;;59.39;2.00;101085.16;5021150;28;20034;-64
2022/08/24 07:37:59;;;;;;;16.13;11.98;;;;;;;59.24;2.04;101083.72;5010129;28;20450;-63
2022/08/24 07:40:27;;;;;;;20.38;12.13;;;;;;;59.80;1.57;101085.41;5013528;28;20034;-62
2022/08/24 07:42:54;;;;;;;16.35;12.98;;;;;;;60.31;1.47;101089.13;5015144;28;20037;-67
2022/08/24 07:45:21;;;;;;;18.08;11.43;;;;;;;60.06;1.98;101088.75;5024883;28;20044;-63
2022/08/24 07:47:48;;;;;;;15.15;13.52;;;;;;;59.71;1.47;101081.00;5033076;28;20030;-61
2022/08/24 07:50:15;;;;;;;17.42;12.65;;;;;;;59.03;2.32;101085.59;5023237;28;20152;-61
2022/08/24 07:52:41;;;;;;;13.68;12.18;;;;;;;58.25;2.43;101083.94;5023495;28;20025;-59
2022/08/24 07:55:08;;;;;;;15.57;11.20;;;;;;;57.59;2.37;101068.31;5023304;28;20102;-59
2022/08/24 07:57:34;;;;;;;11.88;10.50;;;;;;;56.85;3.06;101072.69;5018188;28;20084;-61
2022/08/24 08:00:05;;;;;;;10.68;9.05;;;;;;;56.06;3.02;101074.41;5022654;28;20034;-60
2022/08/24 08:02:33;;;;;;;12.50;8.38;;;;;;;55.03;3.63;101070.78;5020535;28;20040;-61
2022/08/24 08:04:58;;;;;;;13.20;7.45;;;;;;;53.65;4.30;101038.88;5021383;28;20049;-61
2022/08/24 08:07:24;;;;;;;12.32;8.07;;;;;;;52.89;4.42;101062.81;5020755;28;20034;-65
2022/08/24 08:09:51;;;;;;;16.50;7.03;;;;;;;51.72;5.23;101053.44;5019821;28;20017;-62
2022/08/24 08:12:17;;;;;;;15.00;6.85;;;;;;;49.08;7.22;101051.22;5023147;28;20049;-63
2022/08/24 08:14:43;;;;;;;12.15;5.53;;;;;;;46.50;8.08;101043.81;5027771;28;20022;-60
2022/08/24 08:17:08;;;;;;;8.77;5.20;;;;;;;43.97;9.36;101039.13;5013009;28;20030;-60
2022/08/24 08:19:34;;;;;;;7.95;4.43;;;;;;;41.99;10.61;101041.56;5031554;28;20033;-61
2022/08/24 08:24:45;;;;;;;9.10;4.60;;;;;;;38.62;13.34;101047.53;5030483;28;20478;-60
2022/08/24 08:27:15;;;;;;;8.20;4.32;;;;;;;37.70;14.26;101064.00;5024251;28;20109;-60
2022/08/24 08:29:41;;;;;;;11.43;4.53;;;;;;;36.96;14.49;101061.22;5013197;28;20378;-61
2022/08/24 08:32:10;;;;;;;10.93;5.03;;;;;;;36.52;15.37;101059.56;5013031;28;20043;-63
2022/08/24 08:34:36;;;;;;;13.57;5.38;;;;;;;36.12;16.10;101052.59;5028462;28;20040;-63
2022/08/24 08:37:02;;;;;;;13.10;5.40;;;;;;;35.73;16.13;101050.81;5028642;28;20374;-63
2022/08/24 08:39:28;;;;;;;15.98;4.45;;;;;;;35.45;16.32;101047.13;5021586;28;20530;-64
2022/08/24 08:42:03;;;;;;;9.35;4.05;;;;;;;35.44;15.60;101053.81;5023121;28;20039;-62
2022/08/24 08:44:48;;;;;;;7.97;4.38;;;;;;;35.34;15.51;101046.22;5013585;28;20034;-63
2022/08/24 08:47:34;;;;;;;8.93;4.18;;;;;;;35.32;15.25;101054.81;5021570;28;20042;-63
2022/08/24 08:50:06;;;;;;;11.68;3.78;;;;;;;34.99;15.98;101045.47;5017258;28;20139;-60
2022/08/24 08:53:00;;;;;;;11.93;4.15;;;;;;;34.91;15.72;101037.56;5019204;28;20497;-60
2022/08/24 08:55:41;;;;;;;11.23;4.78;;;;;;;34.83;16.17;101054.72;5021826;28;20044;-61
2022/08/24 08:58:34;;;;;;;8.85;3.60;;;;;;;34.55;15.91;101045.44;5021667;28;20022;-60
2022/08/24 09:01:14;;;;;;;6.82;3.40;;;;;;;34.05;16.20;101056.31;5021233;28;20029;-60
2022/08/24 09:03:45;;;;;;;4.03;2.58;;;;;;;33.73;16.61;101035.44;5021268;28;20434;-59
2022/08/24 09:06:11;;;;;;;9.15;3.60;;;;;;;33.71;16.58;101036.78;5022535;28;20096;-61
2022/08/24 09:09:14;;;;;;;9.90;2.70;;;;;;;33.94;16.07;101038.56;5021508;28;20105;-67
2022/08/24 09:11:58;;;;;;;7.80;2.80;;;;;;;33.84;16.21;101050.34;5020432;28;20037;-61
2022/08/24 09:15:02;;;;;;;7.20;2.88;;;;;;;33.59;15.82;101039.59;5020292;28;20058;-61
2022/08/24 09:17:43;;;;;;;8.50;2.72;;;;;;;33.19;16.80;101030.22;5020829;28;20034;-71
2022/08/24 09:20:40;;;;;;;8.27;2.95;;;;;;;33.03;17.16;101038.19;5020313;28;20034;-65
2022/08/24 09:23:30;;;;;;;4.30;2.47;;;;;;;33.20;15.63;101041.06;5020510;28;20044;-63
2022/08/24 09:26:14;;;;;;;3.05;2.30;;;;;;;33.10;15.93;101034.47;5019362;28;20080;-60
2022/08/24 09:28:50;;;;;;;5.53;2.30;;;;;;;33.07;15.87;101030.25;5018358;28;20072;-61
2022/08/24 09:31:38;;;;;;;7.47;2.70;;;;;;;33.06;15.68;101025.78;5022448;28;20039;-62
2022/08/24 09:34:13;;;;;;;5.93;2.30;;;;;;;33.21;15.92;101023.34;5022523;28;20026;-62
2022/08/24 09:37:08;;;;;;;6.22;2.55;;;;;;;33.42;15.83;101036.75;5011127;28;20026;-61
2022/08/24 09:39:33;;;;;;;4.60;2.55;;;;;;;33.22;16.12;101013.06;5016810;28;20045;-64
2022/08/24 09:42:08;;;;;;;5.93;2.50;;;;;;;33.28;16.14;101022.34;5021779;28;20033;-64
2022/08/24 09:45:21;;;;;;;9.88;3.08;;;;;;;33.32;16.22;101023.53;5020645;28;20022;-61
2022/08/24 09:48:31;;;;;;;5.10;2.50;;;;;;;33.28;15.68;101011.25;4998942;28;20057;-60
2022/08/24 09:51:14;;;;;;;6.88;2.25;;;;;;;33.23;15.59;101025.84;5018527;28;20540;-61
2022/08/24 09:53:52;;;;;;;7.95;2.40;;;;;;;33.18;15.56;101011.88;5018275;28;20034;-61
2022/08/24 09:56:18;;;;;;;6.65;2.28;;;;;;;33.24;15.59;101024.75;5017909;28;20044;-63
2022/08/24 09:58:53;;;;;;;2.80;2.10;;;;;;;33.21;15.76;101019.69;5017282;28;20462;-62
2022/08/24 10:01:24;;;;;;;5.15;2.40;;;;;;;33.32;15.88;101015.19;5019758;28;20033;-62
2022/08/24 10:03:54;;;;;;;6.95;2.28;;;;;;;33.22;16.00;101015.84;5018348;28;20072;-62
2022/08/24 10:06:44;;;;;;;6.90;1.92;;;;;;;33.13;15.63;101015.38;5022637;28;20030;-62
2022/08/24 10:09:19;;;;;;;3.20;2.05;;;;;;;33.00;16.18;101004.59;5021313;28;20053;-62
2022/08/24 10:12:02;;;;;;;7.23;2.27;;;;;;;33.00;16.47;101010.97;5017745;28;20033;-63
2022/08/24 10:14:31;;;;;;;9.02;2.53;;;;;;;32.97;16.55;101017.00;5020431;28;20069;-62
2022/08/24 10:17:22;;;;;;;8.80;2.70;;;;;;;33.10;15.98;101015.06;5012628;28;20057;-62
2022/08/24 10:20:00;;;;;;;5.35;2.70;;;;;;;32.90;16.48;101007.97;5009271;28;20805;-62
2022/08/24 10:22:50;;;;;;;4.13;2.25;;;;;;;33.01;16.30;101017.38;5010199;28;20038;-64
2022/08/24 10:25:32;;;;;;;6.53;2.35;;;;;;;32.90;16.31;101013.53;5010434;28;20356;-63
2022/08/24 10:28:22;;;;;;;6.18;2.20;;;;;;;32.91;16.01;101009.66;5011375;28;20061;-62
2022/08/24 10:31:02;;;;;;;7.80;2.28;;;;;;;32.89;15.39;101034.03;5010572;28;20363;-63
2022/08/24 10:33:47;;;;;;;3.53;1.90;;;;;;;32.85;15.59;101013.41;5010075;28;20053;-64
2022/08/24 10:36:35;;;;;;;4.87;1.70;;;;;;;32.93;15.33;101008.34;5010936;28;20504;-62
2022/08/24 10:39:41;;;;;;;6.25;2.33;;;;;;;32.89;15.75;101004.34;5010119;28;20111;-61
2022/08/24 10:45:46;;;;;;;10.35;2.35;;;;;;;32.95;15.45;101010.03;5022562;28;20273;-61
2022/08/24 10:48:30;;;;;;;5.63;2.20;;;;;;;32.99;15.74;101014.81;5022303;28;20029;-62
2022/08/24 10:51:08;;;;;;;3.88;1.75;;;;;;;32.74;15.20;101001.25;5026799;28;20098;-61
2022/08/24 10:53:34;;;;;;;6.75;2.08;;;;;;;32.62;15.81;101013.19;5023758;28;20037;-60
2022/08/24 10:56:06;;;;;;;5.45;2.50;;;;;;;32.65;16.09;101031.25;5023419;28;20034;-61
2022/08/24 10:58:48;;;;;;;2.47;1.90;;;;;;;32.57;15.69;101001.16;5025118;28;20125;-61
2022/08/24 11:01:22;;;;;;;5.25;2.42;;;;;;;32.44;15.98;100993.94;5018340;28;20208;-61
2022/08/24 11:03:51;;;;;;;4.90;2.00;;;;;;;32.38;16.29;100990.19;5010345;28;20088;-61
2022/08/24 11:06:18;;;;;;;5.45;2.30;;;;;;;32.41;16.09;101006.34;5009769;28;20149;-61
2022/08/24 11:08:53;;;;;;;8.23;2.55;;;;;;;32.53;15.87;100994.38;5008565;28;20022;-61
2022/08/24 11:11:27;;;;;;;3.85;2.08;;;;;;;32.60;16.27;100987.63;5010033;28;20529;-62
2022/08/24 11:14:00;;;;;;;6.03;2.22;;;;;;;32.64;16.17;100999.91;5012499;28;20132;-60
2022/08/24 11:16:33;;;;;;;6.68;2.30;;;;;;;32.63;16.22;101009.31;5014625;28;20470;-62
2022/08/24 11:19:01;;;;;;;7.10;1.80;;;;;;;32.50;16.12;100993.78;5013772;28;20034;-61
2022/08/24 11:21:41;;;;;;;5.10;2.03;;;;;;;32.60;16.24;100973.78;5018446;28;20040;-62
2022/08/24 11:24:12;;;;;;;6.80;1.95;;;;;;;32.56;15.76;100978.13;5028713;28;20037;-61
2022/08/24 11:27:36;;;;;;;6.57;2.17;;;;;;;32.74;15.74;100979.88;5014962;28;20111;-60
2022/08/24 11:30:10;;;;;;;6.35;2.00;;;;;;;32.76;15.52;100972.16;5041352;28;20117;-62
2022/08/24 11:32:51;;;;;;;6.10;1.92;;;;;;;32.76;15.98;100976.88;5050295;28;20481;-61
2022/08/24 11:35:36;;;;;;;4.55;1.98;;;;;;;32.79;15.60;100977.22;5037748;28;20036;-63
2022/08/24 11:38:04;;;;;;;5.32;2.33;;;;;;;32.73;15.83;100983.75;5050891;28;20093;-63
2022/08/24 11:40:36;;;;;;;4.70;2.20;;;;;;;32.73;15.62;100983.75;5049813;28;20045;-61